sensor_id;sensor_type;location;lat;lon;timestamp;P1;durP1;ratioP1;P2;durP2;ratioP2
24685;SDS011;12804;51.176;4.452;2023-03-14T00:01:12;8.05;;;1.27;;
24685;SDS011;12804;51.176;4.452;2023-03-14T00:03:43;5.97;;;1.15;;
24685;SDS011;12804;51.176;4.452;2023-03-14T00:06:09;5.72;;;1.13;;
24685;SDS011;12804;51.176;4.452;2023-03-14T00:08:35;5.63;;;1.55;;
24685;SDS011;12804;51.176;4.452;2023-03-14T00:11:05;5.05;;;1.17;;
24685;SDS011;12804;51.176;4.452;2023-03-14T00:13:32;7.30;;;1.00;;
24685;SDS011;12804;51.176;4.452;2023-03-14T00:16:02;5.85;;;1.00;;
24685;SDS011;12804;51.176;4.452;2023-03-14T00:18:29;4.03;;;0.95;;
24685;SDS011;12804;51.176;4.452;2023-03-14T00:20:57;5.72;;;1.00;;
24685;SDS011;12804;51.176;4.452;2023-03-14T00:23:24;4.20;;;0.90;;
24685;SDS011;12804;51.176;4.452;2023-03-14T00:25:49;6.25;;;1.00;;
24685;SDS011;12804;51.176;4.452;2023-03-14T00:28:15;4.68;;;1.05;;
24685;SDS011;12804;51.176;4.452;2023-03-14T00:30:41;5.75;;;0.90;;
24685;SDS011;12804;51.176;4.452;2023-03-14T00:33:08;4.32;;;0.90;;
24685;SDS011;12804;51.176;4.452;2023-03-14T00:35:33;4.47;;;0.60;;
24685;SDS011;12804;51.176;4.452;2023-03-14T00:37:59;5.68;;;1.10;;
24685;SDS011;12804;51.176;4.452;2023-03-14T00:40:25;3.42;;;0.70;;
24685;SDS011;12804;51.176;4.452;2023-03-14T00:42:51;3.90;;;1.00;;
24685;SDS011;12804;51.176;4.452;2023-03-14T00:45:18;5.03;;;0.75;;
24685;SDS011;12804;51.176;4.452;2023-03-14T00:47:44;6.35;;;1.00;;
24685;SDS011;12804;51.176;4.452;2023-03-14T00:50:10;5.07;;;0.70;;
24685;SDS011;12804;51.176;4.452;2023-03-14T00:52:37;4.25;;;0.98;;
24685;SDS011;12804;51.176;4.452;2023-03-14T00:55:04;6.00;;;1.10;;
24685;SDS011;12804;51.176;4.452;2023-03-14T00:57:31;5.47;;;1.08;;
24685;SDS011;12804;51.176;4.452;2023-03-14T00:59:56;6.07;;;1.33;;
24685;SDS011;12804;51.176;4.452;2023-03-14T01:02:22;6.32;;;0.82;;
24685;SDS011;12804;51.176;4.452;2023-03-14T01:04:48;6.47;;;1.40;;
24685;SDS011;12804;51.176;4.452;2023-03-14T01:07:14;5.13;;;0.90;;
24685;SDS011;12804;51.176;4.452;2023-03-14T01:09:40;6.82;;;1.40;;
24685;SDS011;12804;51.176;4.452;2023-03-14T01:12:07;6.95;;;1.42;;
24685;SDS011;12804;51.176;4.452;2023-03-14T01:14:33;8.73;;;1.52;;
24685;SDS011;12804;51.176;4.452;2023-03-14T01:16:59;6.35;;;1.50;;
24685;SDS011;12804;51.176;4.452;2023-03-14T01:19:27;9.05;;;1.77;;
24685;SDS011;12804;51.176;4.452;2023-03-14T01:21:53;7.72;;;1.73;;
24685;SDS011;12804;51.176;4.452;2023-03-14T01:24:19;6.88;;;1.50;;
24685;SDS011;12804;51.176;4.452;2023-03-14T01:26:45;6.70;;;1.42;;
24685;SDS011;12804;51.176;4.452;2023-03-14T01:29:12;9.23;;;2.00;;
24685;SDS011;12804;51.176;4.452;2023-03-14T01:31:39;6.95;;;1.55;;
24685;SDS011;12804;51.176;4.452;2023-03-14T01:34:05;5.82;;;1.35;;
24685;SDS011;12804;51.176;4.452;2023-03-14T01:36:31;10.43;;;1.50;;
24685;SDS011;12804;51.176;4.452;2023-03-14T01:38:59;8.18;;;1.42;;
24685;SDS011;12804;51.176;4.452;2023-03-14T01:41:25;7.88;;;1.73;;
24685;SDS011;12804;51.176;4.452;2023-03-14T01:43:53;5.80;;;1.20;;
24685;SDS011;12804;51.176;4.452;2023-03-14T01:46:20;7.93;;;1.17;;
24685;SDS011;12804;51.176;4.452;2023-03-14T01:51:47;7.15;;;1.25;;
24685;SDS011;12804;51.176;4.452;2023-03-14T01:59:57;5.00;;;1.27;;
24685;SDS011;12804;51.176;4.452;2023-03-14T02:02:39;8.20;;;1.50;;
24685;SDS011;12804;51.176;4.452;2023-03-14T02:05:09;6.57;;;1.50;;
24685;SDS011;12804;51.176;4.452;2023-03-14T02:07:41;7.72;;;1.30;;
24685;SDS011;12804;51.176;4.452;2023-03-14T02:10:21;8.38;;;1.23;;
24685;SDS011;12804;51.176;4.452;2023-03-14T02:12:50;9.68;;;1.60;;
24685;SDS011;12804;51.176;4.452;2023-03-14T02:15:37;9.40;;;1.40;;
24685;SDS011;12804;51.176;4.452;2023-03-14T02:18:16;8.55;;;1.52;;
24685;SDS011;12804;51.176;4.452;2023-03-14T02:20:58;7.82;;;1.05;;
24685;SDS011;12804;51.176;4.452;2023-03-14T02:23:38;6.70;;;1.30;;
24685;SDS011;12804;51.176;4.452;2023-03-14T02:26:09;4.80;;;0.85;;
24685;SDS011;12804;51.176;4.452;2023-03-14T02:28:39;5.88;;;1.08;;
24685;SDS011;12804;51.176;4.452;2023-03-14T02:31:06;10.32;;;1.20;;
24685;SDS011;12804;51.176;4.452;2023-03-14T02:33:33;6.63;;;1.50;;
24685;SDS011;12804;51.176;4.452;2023-03-14T02:36:04;6.25;;;1.13;;
24685;SDS011;12804;51.176;4.452;2023-03-14T02:41:14;4.90;;;1.10;;
24685;SDS011;12804;51.176;4.452;2023-03-14T02:46:14;4.53;;;1.08;;
24685;SDS011;12804;51.176;4.452;2023-03-14T02:48:44;6.00;;;1.25;;
24685;SDS011;12804;51.176;4.452;2023-03-14T02:51:15;6.38;;;0.98;;
24685;SDS011;12804;51.176;4.452;2023-03-14T02:53:44;6.28;;;0.80;;
24685;SDS011;12804;51.176;4.452;2023-03-14T02:56:11;6.38;;;0.90;;
24685;SDS011;12804;51.176;4.452;2023-03-14T02:58:37;4.80;;;0.93;;
24685;SDS011;12804;51.176;4.452;2023-03-14T03:01:18;6.57;;;1.02;;
24685;SDS011;12804;51.176;4.452;2023-03-14T03:03:44;5.75;;;0.70;;
24685;SDS011;12804;51.176;4.452;2023-03-14T03:06:10;3.13;;;0.93;;
24685;SDS011;12804;51.176;4.452;2023-03-14T03:08:37;4.53;;;0.80;;
24685;SDS011;12804;51.176;4.452;2023-03-14T03:11:03;5.55;;;0.82;;
24685;SDS011;12804;51.176;4.452;2023-03-14T03:13:31;5.03;;;0.68;;
24685;SDS011;12804;51.176;4.452;2023-03-14T03:15:59;5.30;;;0.90;;
24685;SDS011;12804;51.176;4.452;2023-03-14T03:18:25;6.03;;;1.00;;
24685;SDS011;12804;51.176;4.452;2023-03-14T03:20:51;4.03;;;0.90;;
24685;SDS011;12804;51.176;4.452;2023-03-14T03:23:17;5.28;;;1.20;;
24685;SDS011;12804;51.176;4.452;2023-03-14T03:25:47;5.22;;;1.48;;
24685;SDS011;12804;51.176;4.452;2023-03-14T03:28:14;4.55;;;1.10;;
24685;SDS011;12804;51.176;4.452;2023-03-14T03:30:40;4.63;;;1.13;;
24685;SDS011;12804;51.176;4.452;2023-03-14T03:33:07;5.78;;;1.35;;
24685;SDS011;12804;51.176;4.452;2023-03-14T03:35:33;7.03;;;1.30;;
24685;SDS011;12804;51.176;4.452;2023-03-14T03:37:59;9.75;;;1.27;;
24685;SDS011;12804;51.176;4.452;2023-03-14T03:40:26;6.13;;;1.10;;
24685;SDS011;12804;51.176;4.452;2023-03-14T03:42:52;8.82;;;1.40;;
24685;SDS011;12804;51.176;4.452;2023-03-14T03:45:18;3.92;;;1.00;;
24685;SDS011;12804;51.176;4.452;2023-03-14T03:47:50;4.57;;;1.25;;
24685;SDS011;12804;51.176;4.452;2023-03-14T03:50:16;4.68;;;1.40;;
24685;SDS011;12804;51.176;4.452;2023-03-14T03:52:42;6.13;;;1.30;;
24685;SDS011;12804;51.176;4.452;2023-03-14T03:55:08;4.97;;;1.23;;
24685;SDS011;12804;51.176;4.452;2023-03-14T03:57:34;6.28;;;1.38;;
24685;SDS011;12804;51.176;4.452;2023-03-14T04:00:00;4.25;;;1.00;;
24685;SDS011;12804;51.176;4.452;2023-03-14T04:02:26;7.72;;;1.70;;
24685;SDS011;12804;51.176;4.452;2023-03-14T04:04:52;6.78;;;1.50;;
24685;SDS011;12804;51.176;4.452;2023-03-14T04:07:18;6.50;;;1.42;;
24685;SDS011;12804;51.176;4.452;2023-03-14T04:09:44;6.53;;;1.38;;
24685;SDS011;12804;51.176;4.452;2023-03-14T04:12:30;6.10;;;1.58;;
24685;SDS011;12804;51.176;4.452;2023-03-14T04:15:02;6.90;;;1.63;;
24685;SDS011;12804;51.176;4.452;2023-03-14T04:17:29;10.07;;;2.28;;
24685;SDS011;12804;51.176;4.452;2023-03-14T04:19:55;8.20;;;1.70;;
24685;SDS011;12804;51.176;4.452;2023-03-14T04:22:28;8.75;;;1.75;;
24685;SDS011;12804;51.176;4.452;2023-03-14T04:24:54;6.50;;;1.95;;
24685;SDS011;12804;51.176;4.452;2023-03-14T04:27:21;8.98;;;2.08;;
24685;SDS011;12804;51.176;4.452;2023-03-14T04:29:47;7.05;;;1.60;;
24685;SDS011;12804;51.176;4.452;2023-03-14T04:32:17;9.30;;;1.75;;
24685;SDS011;12804;51.176;4.452;2023-03-14T04:34:42;8.32;;;1.80;;
24685;SDS011;12804;51.176;4.452;2023-03-14T04:37:08;9.02;;;1.95;;
24685;SDS011;12804;51.176;4.452;2023-03-14T04:39:38;9.38;;;1.95;;
24685;SDS011;12804;51.176;4.452;2023-03-14T04:42:12;7.68;;;1.98;;
24685;SDS011;12804;51.176;4.452;2023-03-14T04:44:38;7.03;;;2.33;;
24685;SDS011;12804;51.176;4.452;2023-03-14T04:47:05;7.72;;;2.28;;
24685;SDS011;12804;51.176;4.452;2023-03-14T04:49:31;11.77;;;2.30;;
24685;SDS011;12804;51.176;4.452;2023-03-14T04:51:58;5.70;;;2.08;;
24685;SDS011;12804;51.176;4.452;2023-03-14T04:54:26;5.30;;;1.95;;
24685;SDS011;12804;51.176;4.452;2023-03-14T04:56:55;8.30;;;2.40;;
24685;SDS011;12804;51.176;4.452;2023-03-14T04:59:22;7.05;;;2.28;;
24685;SDS011;12804;51.176;4.452;2023-03-14T05:01:50;6.40;;;1.95;;
24685;SDS011;12804;51.176;4.452;2023-03-14T05:04:39;5.63;;;2.22;;
24685;SDS011;12804;51.176;4.452;2023-03-14T05:07:31;6.07;;;2.50;;
24685;SDS011;12804;51.176;4.452;2023-03-14T05:10:08;6.35;;;2.50;;
24685;SDS011;12804;51.176;4.452;2023-03-14T05:12:53;5.03;;;2.08;;
24685;SDS011;12804;51.176;4.452;2023-03-14T05:15:30;5.47;;;2.70;;
24685;SDS011;12804;51.176;4.452;2023-03-14T05:18:16;5.15;;;2.08;;
24685;SDS011;12804;51.176;4.452;2023-03-14T05:21:03;5.43;;;2.30;;
24685;SDS011;12804;51.176;4.452;2023-03-14T05:23:41;6.07;;;1.95;;
24685;SDS011;12804;51.176;4.452;2023-03-14T05:26:26;3.90;;;1.77;;
24685;SDS011;12804;51.176;4.452;2023-03-14T05:29:12;5.63;;;2.17;;
24685;SDS011;12804;51.176;4.452;2023-03-14T05:32:00;2.67;;;2.17;;
24685;SDS011;12804;51.176;4.452;2023-03-14T05:34:44;4.68;;;2.50;;
24685;SDS011;12804;51.176;4.452;2023-03-14T05:37:46;5.25;;;2.05;;
24685;SDS011;12804;51.176;4.452;2023-03-14T05:40:30;5.38;;;2.20;;
24685;SDS011;12804;51.176;4.452;2023-03-14T05:43:19;5.15;;;2.53;;
24685;SDS011;12804;51.176;4.452;2023-03-14T05:46:11;7.72;;;2.95;;
24685;SDS011;12804;51.176;4.452;2023-03-14T05:49:00;8.13;;;3.47;;
24685;SDS011;12804;51.176;4.452;2023-03-14T05:51:52;6.18;;;3.58;;
24685;SDS011;12804;51.176;4.452;2023-03-14T05:54:34;8.75;;;3.72;;
24685;SDS011;12804;51.176;4.452;2023-03-14T05:57:27;7.63;;;4.33;;
24685;SDS011;12804;51.176;4.452;2023-03-14T06:00:24;10.18;;;4.90;;
24685;SDS011;12804;51.176;4.452;2023-03-14T06:03:02;8.95;;;5.90;;
24685;SDS011;12804;51.176;4.452;2023-03-14T06:05:32;10.70;;;5.55;;
24685;SDS011;12804;51.176;4.452;2023-03-14T06:08:00;8.50;;;5.45;;
24685;SDS011;12804;51.176;4.452;2023-03-14T06:10:27;7.18;;;5.70;;
24685;SDS011;12804;51.176;4.452;2023-03-14T06:12:53;9.05;;;5.90;;
24685;SDS011;12804;51.176;4.452;2023-03-14T06:15:19;8.52;;;5.80;;
24685;SDS011;12804;51.176;4.452;2023-03-14T06:17:48;8.52;;;5.20;;
24685;SDS011;12804;51.176;4.452;2023-03-14T06:20:15;8.88;;;5.90;;
24685;SDS011;12804;51.176;4.452;2023-03-14T06:22:41;9.27;;;5.82;;
24685;SDS011;12804;51.176;4.452;2023-03-14T06:25:09;10.85;;;6.50;;
24685;SDS011;12804;51.176;4.452;2023-03-14T06:27:35;7.20;;;5.32;;
24685;SDS011;12804;51.176;4.452;2023-03-14T06:30:01;5.93;;;4.70;;
24685;SDS011;12804;51.176;4.452;2023-03-14T06:32:30;5.85;;;4.40;;
24685;SDS011;12804;51.176;4.452;2023-03-14T06:34:59;2.95;;;1.30;;
24685;SDS011;12804;51.176;4.452;2023-03-14T06:37:27;3.63;;;0.90;;
24685;SDS011;12804;51.176;4.452;2023-03-14T06:39:54;1.00;;;0.45;;
24685;SDS011;12804;51.176;4.452;2023-03-14T06:42:38;3.60;;;0.57;;
24685;SDS011;12804;51.176;4.452;2023-03-14T06:45:05;2.92;;;0.57;;
24685;SDS011;12804;51.176;4.452;2023-03-14T06:47:31;3.60;;;0.77;;
24685;SDS011;12804;51.176;4.452;2023-03-14T06:49:57;3.63;;;1.15;;
24685;SDS011;12804;51.176;4.452;2023-03-14T06:52:23;3.13;;;1.52;;
24685;SDS011;12804;51.176;4.452;2023-03-14T06:54:49;6.88;;;1.55;;
24685;SDS011;12804;51.176;4.452;2023-03-14T06:57:18;5.00;;;1.65;;
24685;SDS011;12804;51.176;4.452;2023-03-14T06:59:44;9.52;;;2.00;;
24685;SDS011;12804;51.176;4.452;2023-03-14T07:02:10;4.53;;;1.30;;
24685;SDS011;12804;51.176;4.452;2023-03-14T07:04:38;2.35;;;1.08;;
24685;SDS011;12804;51.176;4.452;2023-03-14T07:07:05;3.35;;;1.10;;
24685;SDS011;12804;51.176;4.452;2023-03-14T07:09:33;4.97;;;1.25;;
24685;SDS011;12804;51.176;4.452;2023-03-14T07:12:01;5.55;;;1.75;;
24685;SDS011;12804;51.176;4.452;2023-03-14T07:14:29;6.47;;;2.20;;
24685;SDS011;12804;51.176;4.452;2023-03-14T07:16:55;6.80;;;2.00;;
24685;SDS011;12804;51.176;4.452;2023-03-14T07:19:21;5.28;;;1.45;;
24685;SDS011;12804;51.176;4.452;2023-03-14T07:21:47;5.15;;;1.40;;
24685;SDS011;12804;51.176;4.452;2023-03-14T07:24:16;7.10;;;1.48;;
24685;SDS011;12804;51.176;4.452;2023-03-14T07:26:42;3.20;;;1.08;;
24685;SDS011;12804;51.176;4.452;2023-03-14T07:29:09;9.57;;;1.25;;
24685;SDS011;12804;51.176;4.452;2023-03-14T07:31:35;5.15;;;1.08;;
24685;SDS011;12804;51.176;4.452;2023-03-14T07:34:02;4.30;;;1.10;;
24685;SDS011;12804;51.176;4.452;2023-03-14T07:36:31;4.57;;;0.93;;
24685;SDS011;12804;51.176;4.452;2023-03-14T07:38:58;6.13;;;1.08;;
24685;SDS011;12804;51.176;4.452;2023-03-14T07:41:39;7.15;;;0.93;;
24685;SDS011;12804;51.176;4.452;2023-03-14T07:44:23;4.82;;;0.77;;
24685;SDS011;12804;51.176;4.452;2023-03-14T07:46:49;6.40;;;1.08;;
24685;SDS011;12804;51.176;4.452;2023-03-14T07:49:15;6.38;;;1.10;;
24685;SDS011;12804;51.176;4.452;2023-03-14T07:51:40;6.07;;;1.17;;
24685;SDS011;12804;51.176;4.452;2023-03-14T07:54:09;8.90;;;1.50;;
24685;SDS011;12804;51.176;4.452;2023-03-14T07:56:35;10.35;;;1.17;;
24685;SDS011;12804;51.176;4.452;2023-03-14T07:59:01;8.38;;;1.60;;
24685;SDS011;12804;51.176;4.452;2023-03-14T08:01:27;5.90;;;1.48;;
24685;SDS011;12804;51.176;4.452;2023-03-14T08:03:52;7.20;;;1.30;;
24685;SDS011;12804;51.176;4.452;2023-03-14T08:06:18;5.95;;;1.45;;
24685;SDS011;12804;51.176;4.452;2023-03-14T08:08:44;8.60;;;1.48;;
24685;SDS011;12804;51.176;4.452;2023-03-14T08:11:10;6.10;;;1.42;;
24685;SDS011;12804;51.176;4.452;2023-03-14T08:13:36;5.72;;;1.45;;
24685;SDS011;12804;51.176;4.452;2023-03-14T08:16:02;5.43;;;1.58;;
24685;SDS011;12804;51.176;4.452;2023-03-14T08:18:29;4.78;;;1.20;;
24685;SDS011;12804;51.176;4.452;2023-03-14T08:20:55;4.22;;;0.90;;
24685;SDS011;12804;51.176;4.452;2023-03-14T08:23:21;3.65;;;0.93;;
24685;SDS011;12804;51.176;4.452;2023-03-14T08:25:50;7.35;;;1.00;;
24685;SDS011;12804;51.176;4.452;2023-03-14T08:28:17;10.80;;;1.10;;
24685;SDS011;12804;51.176;4.452;2023-03-14T08:30:43;3.25;;;0.70;;
24685;SDS011;12804;51.176;4.452;2023-03-14T08:33:09;6.32;;;1.25;;
24685;SDS011;12804;51.176;4.452;2023-03-14T08:35:36;5.10;;;0.90;;
24685;SDS011;12804;51.176;4.452;2023-03-14T08:38:03;3.85;;;1.08;;
24685;SDS011;12804;51.176;4.452;2023-03-14T08:40:29;7.85;;;0.70;;
24685;SDS011;12804;51.176;4.452;2023-03-14T08:42:55;4.38;;;0.90;;
24685;SDS011;12804;51.176;4.452;2023-03-14T08:45:20;3.63;;;0.85;;
24685;SDS011;12804;51.176;4.452;2023-03-14T08:47:46;7.13;;;1.25;;
24685;SDS011;12804;51.176;4.452;2023-03-14T08:50:12;5.30;;;0.70;;
24685;SDS011;12804;51.176;4.452;2023-03-14T08:52:38;5.15;;;1.00;;
24685;SDS011;12804;51.176;4.452;2023-03-14T08:55:07;3.30;;;0.70;;
24685;SDS011;12804;51.176;4.452;2023-03-14T08:57:33;4.85;;;1.08;;
24685;SDS011;12804;51.176;4.452;2023-03-14T08:59:59;5.47;;;0.95;;
24685;SDS011;12804;51.176;4.452;2023-03-14T09:02:25;1.88;;;0.80;;
24685;SDS011;12804;51.176;4.452;2023-03-14T09:04:51;5.78;;;0.82;;
24685;SDS011;12804;51.176;4.452;2023-03-14T09:07:18;5.28;;;1.00;;
24685;SDS011;12804;51.176;4.452;2023-03-14T09:09:44;4.38;;;1.15;;
24685;SDS011;12804;51.176;4.452;2023-03-14T09:12:11;8.20;;;1.25;;
24685;SDS011;12804;51.176;4.452;2023-03-14T09:14:37;2.88;;;0.63;;
24685;SDS011;12804;51.176;4.452;2023-03-14T09:17:03;3.15;;;0.52;;
24685;SDS011;12804;51.176;4.452;2023-03-14T09:19:29;3.25;;;0.90;;
24685;SDS011;12804;51.176;4.452;2023-03-14T09:21:55;2.78;;;0.35;;
24685;SDS011;12804;51.176;4.452;2023-03-14T09:24:21;1.83;;;0.50;;
24685;SDS011;12804;51.176;4.452;2023-03-14T09:26:47;4.85;;;0.40;;
24685;SDS011;12804;51.176;4.452;2023-03-14T09:29:13;1.58;;;0.45;;
24685;SDS011;12804;51.176;4.452;2023-03-14T09:31:39;2.13;;;0.40;;
24685;SDS011;12804;51.176;4.452;2023-03-14T09:34:10;2.30;;;0.55;;
24685;SDS011;12804;51.176;4.452;2023-03-14T09:36:36;2.42;;;0.60;;
24685;SDS011;12804;51.176;4.452;2023-03-14T09:39:04;1.02;;;0.43;;
24685;SDS011;12804;51.176;4.452;2023-03-14T09:41:31;4.55;;;0.50;;
24685;SDS011;12804;51.176;4.452;2023-03-14T09:44:04;0.60;;;0.30;;
24685;SDS011;12804;51.176;4.452;2023-03-14T09:46:36;2.53;;;0.30;;
24685;SDS011;12804;51.176;4.452;2023-03-14T09:49:08;1.67;;;0.47;;
24685;SDS011;12804;51.176;4.452;2023-03-14T09:51:56;2.20;;;0.38;;
24685;SDS011;12804;51.176;4.452;2023-03-14T09:54:32;1.70;;;0.30;;
24685;SDS011;12804;51.176;4.452;2023-03-14T09:57:03;2.63;;;0.50;;
24685;SDS011;12804;51.176;4.452;2023-03-14T09:59:30;2.28;;;0.52;;
24685;SDS011;12804;51.176;4.452;2023-03-14T10:02:10;1.67;;;0.57;;
24685;SDS011;12804;51.176;4.452;2023-03-14T10:04:46;1.23;;;0.60;;
24685;SDS011;12804;51.176;4.452;2023-03-14T10:07:14;4.70;;;0.80;;
24685;SDS011;12804;51.176;4.452;2023-03-14T10:09:47;2.53;;;0.70;;
24685;SDS011;12804;51.176;4.452;2023-03-14T10:12:15;6.05;;;0.82;;
24685;SDS011;12804;51.176;4.452;2023-03-14T10:15:25;5.45;;;0.90;;
24685;SDS011;12804;51.176;4.452;2023-03-14T10:17:43;8.18;;;1.42;;
24685;SDS011;12804;51.176;4.452;2023-03-14T10:23:44;4.70;;;1.58;;
24685;SDS011;12804;51.176;4.452;2023-03-14T10:28:52;5.18;;;1.00;;
24685;SDS011;12804;51.176;4.452;2023-03-14T10:31:27;3.53;;;1.17;;
24685;SDS011;12804;51.176;4.452;2023-03-14T10:33:57;5.03;;;1.08;;
24685;SDS011;12804;51.176;4.452;2023-03-14T10:36:26;6.28;;;0.95;;
24685;SDS011;12804;51.176;4.452;2023-03-14T10:41:54;6.40;;;0.70;;
24685;SDS011;12804;51.176;4.452;2023-03-14T10:44:28;7.18;;;0.82;;
24685;SDS011;12804;51.176;4.452;2023-03-14T10:46:56;4.53;;;0.90;;
24685;SDS011;12804;51.176;4.452;2023-03-14T10:49:36;2.92;;;0.70;;
24685;SDS011;12804;51.176;4.452;2023-03-14T10:54:39;8.82;;;1.20;;
24685;SDS011;12804;51.176;4.452;2023-03-14T10:57:05;7.38;;;1.40;;
24685;SDS011;12804;51.176;4.452;2023-03-14T10:59:37;4.55;;;0.90;;
24685;SDS011;12804;51.176;4.452;2023-03-14T11:05:01;8.90;;;1.30;;
24685;SDS011;12804;51.176;4.452;2023-03-14T11:07:39;4.03;;;1.23;;
24685;SDS011;12804;51.176;4.452;2023-03-14T11:21:11;6.78;;;1.05;;
24685;SDS011;12804;51.176;4.452;2023-03-14T11:28:58;7.35;;;1.10;;
24685;SDS011;12804;51.176;4.452;2023-03-14T11:31:38;7.75;;;2.13;;
24685;SDS011;12804;51.176;4.452;2023-03-14T11:34:17;10.18;;;1.50;;
24685;SDS011;12804;51.176;4.452;2023-03-14T11:36:51;9.40;;;1.65;;
24685;SDS011;12804;51.176;4.452;2023-03-14T11:39:29;5.72;;;1.40;;
24685;SDS011;12804;51.176;4.452;2023-03-14T11:42:04;10.20;;;1.52;;
24685;SDS011;12804;51.176;4.452;2023-03-14T11:44:33;9.55;;;1.42;;
24685;SDS011;12804;51.176;4.452;2023-03-14T11:47:19;10.32;;;1.38;;
24685;SDS011;12804;51.176;4.452;2023-03-14T11:50:02;8.50;;;1.65;;
24685;SDS011;12804;51.176;4.452;2023-03-14T11:57:44;11.13;;;1.75;;
24685;SDS011;12804;51.176;4.452;2023-03-14T12:05:54;12.23;;;2.33;;
24685;SDS011;12804;51.176;4.452;2023-03-14T12:08:38;12.70;;;2.40;;
24685;SDS011;12804;51.176;4.452;2023-03-14T12:11:09;10.65;;;2.05;;
24685;SDS011;12804;51.176;4.452;2023-03-14T12:13:49;13.68;;;2.50;;
24685;SDS011;12804;51.176;4.452;2023-03-14T12:18:52;17.63;;;2.88;;
24685;SDS011;12804;51.176;4.452;2023-03-14T12:21:18;12.98;;;1.98;;
24685;SDS011;12804;51.176;4.452;2023-03-14T12:26:22;13.55;;;2.72;;
24685;SDS011;12804;51.176;4.452;2023-03-14T12:29:37;13.30;;;2.58;;
24685;SDS011;12804;51.176;4.452;2023-03-14T12:31:42;19.73;;;3.03;;
24685;SDS011;12804;51.176;4.452;2023-03-14T12:39:21;14.73;;;2.45;;
24685;SDS011;12804;51.176;4.452;2023-03-14T12:44:49;13.85;;;2.70;;
24685;SDS011;12804;51.176;4.452;2023-03-14T12:49:45;14.75;;;2.53;;
24685;SDS011;12804;51.176;4.452;2023-03-14T12:52:19;24.65;;;2.83;;
24685;SDS011;12804;51.176;4.452;2023-03-14T12:55:18;20.85;;;2.67;;
24685;SDS011;12804;51.176;4.452;2023-03-14T12:58:07;17.15;;;3.00;;
24685;SDS011;12804;51.176;4.452;2023-03-14T13:00:34;17.38;;;2.65;;
24685;SDS011;12804;51.176;4.452;2023-03-14T13:03:18;16.77;;;2.08;;
24685;SDS011;12804;51.176;4.452;2023-03-14T13:08:39;16.55;;;2.38;;
24685;SDS011;12804;51.176;4.452;2023-03-14T13:11:15;8.82;;;2.20;;
24685;SDS011;12804;51.176;4.452;2023-03-14T13:13:51;11.07;;;1.73;;
24685;SDS011;12804;51.176;4.452;2023-03-14T13:16:22;13.63;;;2.08;;
24685;SDS011;12804;51.176;4.452;2023-03-14T13:18:49;12.50;;;2.30;;
24685;SDS011;12804;51.176;4.452;2023-03-14T13:21:24;13.63;;;2.33;;
24685;SDS011;12804;51.176;4.452;2023-03-14T13:23:57;11.20;;;1.80;;
24685;SDS011;12804;51.176;4.452;2023-03-14T13:26:35;10.75;;;2.00;;
24685;SDS011;12804;51.176;4.452;2023-03-14T13:31:52;8.35;;;1.58;;
24685;SDS011;12804;51.176;4.452;2023-03-14T13:34:19;7.63;;;1.27;;
24685;SDS011;12804;51.176;4.452;2023-03-14T13:36:46;6.20;;;1.30;;
24685;SDS011;12804;51.176;4.452;2023-03-14T13:39:19;4.30;;;1.00;;
24685;SDS011;12804;51.176;4.452;2023-03-14T13:41:49;5.35;;;1.20;;
24685;SDS011;12804;51.176;4.452;2023-03-14T13:44:17;5.97;;;1.10;;
24685;SDS011;12804;51.176;4.452;2023-03-14T13:46:46;6.63;;;1.83;;
24685;SDS011;12804;51.176;4.452;2023-03-14T13:49:15;7.22;;;1.63;;
24685;SDS011;12804;51.176;4.452;2023-03-14T13:51:48;7.13;;;1.10;;
24685;SDS011;12804;51.176;4.452;2023-03-14T13:54:15;7.28;;;1.42;;
24685;SDS011;12804;51.176;4.452;2023-03-14T13:56:42;7.00;;;1.30;;
24685;SDS011;12804;51.176;4.452;2023-03-14T13:59:21;7.80;;;1.10;;
24685;SDS011;12804;51.176;4.452;2023-03-14T14:01:52;11.60;;;1.45;;
24685;SDS011;12804;51.176;4.452;2023-03-14T14:04:23;6.43;;;1.63;;
24685;SDS011;12804;51.176;4.452;2023-03-14T14:06:58;11.43;;;1.60;;
24685;SDS011;12804;51.176;4.452;2023-03-14T14:09:26;9.20;;;1.30;;
24685;SDS011;12804;51.176;4.452;2023-03-14T14:12:05;8.35;;;1.42;;
24685;SDS011;12804;51.176;4.452;2023-03-14T14:14:43;3.35;;;0.70;;
24685;SDS011;12804;51.176;4.452;2023-03-14T14:17:21;1.55;;;0.60;;
24685;SDS011;12804;51.176;4.452;2023-03-14T14:19:51;3.33;;;0.50;;
24685;SDS011;12804;51.176;4.452;2023-03-14T14:22:19;1.58;;;0.40;;
24685;SDS011;12804;51.176;4.452;2023-03-14T14:24:45;3.45;;;0.70;;
24685;SDS011;12804;51.176;4.452;2023-03-14T14:29:57;2.33;;;0.40;;
24685;SDS011;12804;51.176;4.452;2023-03-14T14:32:24;3.15;;;0.50;;
24685;SDS011;12804;51.176;4.452;2023-03-14T14:39:54;5.32;;;0.68;;
24685;SDS011;12804;51.176;4.452;2023-03-14T14:42:24;2.88;;;0.60;;
24685;SDS011;12804;51.176;4.452;2023-03-14T14:44:53;4.90;;;0.77;;
24685;SDS011;12804;51.176;4.452;2023-03-14T14:47:22;3.45;;;0.40;;
24685;SDS011;12804;51.176;4.452;2023-03-14T14:49:50;3.70;;;0.60;;
24685;SDS011;12804;51.176;4.452;2023-03-14T14:52:18;9.65;;;0.80;;
24685;SDS011;12804;51.176;4.452;2023-03-14T14:54:58;4.53;;;0.65;;
24685;SDS011;12804;51.176;4.452;2023-03-14T14:57:27;4.05;;;0.88;;
24685;SDS011;12804;51.176;4.452;2023-03-14T15:00:04;5.15;;;0.98;;
24685;SDS011;12804;51.176;4.452;2023-03-14T15:02:45;6.85;;;1.05;;
24685;SDS011;12804;51.176;4.452;2023-03-14T15:07:40;8.88;;;1.42;;
24685;SDS011;12804;51.176;4.452;2023-03-14T15:10:08;10.02;;;1.30;;
24685;SDS011;12804;51.176;4.452;2023-03-14T15:12:36;9.48;;;1.63;;
24685;SDS011;12804;51.176;4.452;2023-03-14T15:15:02;6.32;;;1.38;;
24685;SDS011;12804;51.176;4.452;2023-03-14T15:17:28;8.35;;;1.23;;
24685;SDS011;12804;51.176;4.452;2023-03-14T15:19:54;7.80;;;1.20;;
24685;SDS011;12804;51.176;4.452;2023-03-14T15:22:23;7.85;;;1.25;;
24685;SDS011;12804;51.176;4.452;2023-03-14T15:24:48;8.93;;;1.58;;
24685;SDS011;12804;51.176;4.452;2023-03-14T15:27:15;10.60;;;1.90;;
24685;SDS011;12804;51.176;4.452;2023-03-14T15:29:42;6.25;;;1.23;;
24685;SDS011;12804;51.176;4.452;2023-03-14T15:32:12;6.25;;;1.27;;
24685;SDS011;12804;51.176;4.452;2023-03-14T15:34:39;6.90;;;1.20;;
24685;SDS011;12804;51.176;4.452;2023-03-14T15:37:10;7.85;;;1.45;;
24685;SDS011;12804;51.176;4.452;2023-03-14T15:39:38;8.82;;;1.33;;
24685;SDS011;12804;51.176;4.452;2023-03-14T15:42:04;6.50;;;1.40;;
24685;SDS011;12804;51.176;4.452;2023-03-14T15:44:31;6.40;;;1.40;;
24685;SDS011;12804;51.176;4.452;2023-03-14T15:46:56;6.63;;;1.08;;
24685;SDS011;12804;51.176;4.452;2023-03-14T15:49:22;8.75;;;1.52;;
24685;SDS011;12804;51.176;4.452;2023-03-14T15:51:48;9.63;;;1.67;;
24685;SDS011;12804;51.176;4.452;2023-03-14T15:54:14;10.18;;;1.35;;
24685;SDS011;12804;51.176;4.452;2023-03-14T15:56:40;10.35;;;1.88;;
24685;SDS011;12804;51.176;4.452;2023-03-14T15:59:06;6.72;;;1.00;;
24685;SDS011;12804;51.176;4.452;2023-03-14T16:01:32;13.82;;;1.65;;
24685;SDS011;12804;51.176;4.452;2023-03-14T16:03:57;8.02;;;1.35;;
24685;SDS011;12804;51.176;4.452;2023-03-14T16:06:23;9.00;;;1.23;;
24685;SDS011;12804;51.176;4.452;2023-03-14T16:08:49;5.45;;;1.08;;
24685;SDS011;12804;51.176;4.452;2023-03-14T16:11:15;8.73;;;1.38;;
24685;SDS011;12804;51.176;4.452;2023-03-14T16:13:43;5.40;;;1.10;;
24685;SDS011;12804;51.176;4.452;2023-03-14T16:16:09;11.43;;;1.30;;
24685;SDS011;12804;51.176;4.452;2023-03-14T16:18:37;11.27;;;1.30;;
24685;SDS011;12804;51.176;4.452;2023-03-14T16:21:11;11.13;;;1.10;;
24685;SDS011;12804;51.176;4.452;2023-03-14T16:23:38;5.28;;;0.90;;
24685;SDS011;12804;51.176;4.452;2023-03-14T16:26:06;6.90;;;1.35;;
24685;SDS011;12804;51.176;4.452;2023-03-14T16:28:33;9.48;;;1.23;;
24685;SDS011;12804;51.176;4.452;2023-03-14T16:31:00;8.98;;;1.40;;